createdAt,value
2022-11-25T00:01:24.857Z,9.73
2022-11-25T00:03:53.857Z,9.77
2022-11-25T00:06:32.536Z,9.75
2022-11-25T00:09:01.686Z,9.65
2022-11-25T00:11:29.571Z,9.70
2022-11-25T00:14:00.558Z,9.72
2022-11-25T00:16:31.895Z,9.72
2022-11-25T00:19:00.365Z,9.68
2022-11-25T00:21:31.697Z,9.71
2022-11-25T00:24:01.838Z,9.47
2022-11-25T00:26:35.670Z,9.59
2022-11-25T00:29:05.649Z,9.68
2022-11-25T00:31:35.018Z,9.54
2022-11-25T00:34:02.064Z,9.61
2022-11-25T00:36:31.527Z,9.64
2022-11-25T00:39:00.461Z,9.64
2022-11-25T00:41:48.142Z,9.74
2022-11-25T00:44:36.423Z,9.65
2022-11-25T00:47:18.700Z,9.58
2022-11-25T00:49:54.685Z,9.67
2022-11-25T00:52:23.637Z,9.57
2022-11-25T00:54:51.383Z,9.60
2022-11-25T00:57:19.905Z,9.49
2022-11-25T00:59:46.459Z,9.41
2022-11-25T01:02:14.478Z,9.57
2022-11-25T01:04:41.605Z,9.56
2022-11-25T01:07:08.276Z,9.53
2022-11-25T01:09:35.044Z,9.55
2022-11-25T01:12:01.748Z,9.41
2022-11-25T01:14:28.424Z,9.40
2022-11-25T01:16:56.825Z,9.50
2022-11-25T01:19:24.817Z,9.48
2022-11-25T01:21:52.753Z,9.47
2022-11-25T01:24:23.897Z,9.39
2022-11-25T01:26:50.783Z,9.46
2022-11-25T01:29:18.971Z,9.18
2022-11-25T01:31:47.475Z,9.33
2022-11-25T01:34:20.791Z,9.39
2022-11-25T01:36:48.331Z,9.31
2022-11-25T01:39:19.374Z,9.24
2022-11-25T01:41:46.864Z,9.38
2022-11-25T01:44:21.729Z,9.34
2022-11-25T01:46:54.793Z,9.34
2022-11-25T01:49:55.133Z,9.10
2022-11-25T01:52:44.224Z,9.34
2022-11-25T01:55:20.041Z,9.32
2022-11-25T01:57:50.346Z,9.33
2022-11-25T02:00:18.337Z,9.31
2022-11-25T02:02:47.982Z,9.26
2022-11-25T02:05:17.918Z,8.94
2022-11-25T02:07:48.456Z,9.21
2022-11-25T02:10:23.640Z,9.19
2022-11-25T02:12:52.087Z,9.23
2022-11-25T02:15:18.993Z,9.20
2022-11-25T02:17:46.693Z,9.17
2022-11-25T02:20:19.322Z,9.19
2022-11-25T02:22:52.548Z,9.25
2022-11-25T02:25:24.852Z,9.25
2022-11-25T02:28:05.267Z,9.30
2022-11-25T02:30:32.570Z,9.34
2022-11-25T02:33:00.260Z,9.27
2022-11-25T02:35:40.345Z,9.33
2022-11-25T02:38:15.318Z,9.39
2022-11-25T02:40:48.780Z,9.37
2022-11-25T02:43:16.412Z,9.37
2022-11-25T02:45:47.213Z,9.38
2022-11-25T02:48:13.647Z,9.46
2022-11-25T02:50:40.145Z,9.46
2022-11-25T02:53:06.706Z,9.40
2022-11-25T02:55:34.322Z,9.36
2022-11-25T02:58:00.735Z,9.46
2022-11-25T03:00:27.332Z,9.45
2022-11-25T03:02:54.533Z,9.46
2022-11-25T03:05:22.535Z,9.50
2022-11-25T03:07:49.166Z,9.53
2022-11-25T03:10:15.810Z,9.62
2022-11-25T03:12:42.297Z,9.55
2022-11-25T03:15:09.615Z,9.58
2022-11-25T03:17:36.203Z,9.56
2022-11-25T03:20:03.826Z,9.52
2022-11-25T03:22:30.233Z,9.53
2022-11-25T03:24:56.625Z,9.53
2022-11-25T03:27:23.064Z,9.51
2022-11-25T03:29:49.592Z,9.55
2022-11-25T03:32:16.273Z,9.48
2022-11-25T03:34:42.749Z,9.55
2022-11-25T03:37:09.360Z,9.60
2022-11-25T03:39:36.044Z,9.54
2022-11-25T03:42:02.586Z,9.54
2022-11-25T03:44:28.971Z,9.56
2022-11-25T03:46:55.418Z,9.60
2022-11-25T03:49:21.982Z,9.68
2022-11-25T03:51:48.780Z,9.63
2022-11-25T03:54:15.239Z,9.64
2022-11-25T03:56:42.116Z,9.67
2022-11-25T03:59:08.695Z,9.68
2022-11-25T04:01:35.910Z,9.70
2022-11-25T04:04:04.532Z,9.71
2022-11-25T04:06:32.072Z,9.71
2022-11-25T04:09:00.117Z,9.70
2022-11-25T04:11:46.539Z,9.73
2022-11-25T04:14:13.806Z,9.75
2022-11-25T04:16:40.367Z,9.72
2022-11-25T04:19:06.871Z,9.72
2022-11-25T04:21:33.307Z,9.67
2022-11-25T04:23:59.747Z,9.72
2022-11-25T04:26:26.214Z,9.68
2022-11-25T04:28:53.109Z,9.69
2022-11-25T04:31:19.730Z,9.73
2022-11-25T04:33:52.207Z,9.78
2022-11-25T04:36:19.152Z,9.73
2022-11-25T04:38:45.570Z,9.75
2022-11-25T04:41:11.985Z,9.74
2022-11-25T04:43:41.550Z,9.72
2022-11-25T04:46:16.370Z,9.76
2022-11-25T04:48:42.896Z,9.77
2022-11-25T04:51:09.649Z,9.76
2022-11-25T04:53:36.111Z,9.85
2022-11-25T04:56:02.615Z,9.84
2022-11-25T04:58:47.815Z,9.88
2022-11-25T05:01:14.396Z,9.90
2022-11-25T05:03:46.247Z,9.80
2022-11-25T05:06:15.409Z,9.82
2022-11-25T05:08:41.915Z,9.81
2022-11-25T05:11:08.402Z,9.74
2022-11-25T05:13:34.864Z,9.83
2022-11-25T05:16:01.363Z,9.74
2022-11-25T05:18:27.823Z,9.83
2022-11-25T05:20:54.201Z,9.77
2022-11-25T05:23:20.694Z,9.80
2022-11-25T05:25:47.191Z,9.82
2022-11-25T05:28:13.607Z,9.82
2022-11-25T05:30:40.350Z,9.86
2022-11-25T05:33:06.806Z,9.87
2022-11-25T05:35:33.254Z,9.87
2022-11-25T05:38:01.042Z,9.83
2022-11-25T05:40:27.431Z,9.85
2022-11-25T05:42:53.861Z,9.83
2022-11-25T05:45:20.350Z,9.74
2022-11-25T05:47:46.749Z,9.80
2022-11-25T05:50:13.236Z,9.76
2022-11-25T05:52:39.700Z,9.75
2022-11-25T05:55:06.772Z,9.79
2022-11-25T05:57:33.187Z,9.80
2022-11-25T05:59:59.640Z,9.85
2022-11-25T06:02:26.202Z,9.84
2022-11-25T06:04:52.734Z,9.80
2022-11-25T06:07:19.276Z,9.81
2022-11-25T06:09:45.774Z,9.81
2022-11-25T06:12:12.215Z,9.75
2022-11-25T06:14:38.826Z,9.81
2022-11-25T06:17:05.432Z,9.75
2022-11-25T06:19:31.855Z,9.75
2022-11-25T06:21:58.313Z,9.76
2022-11-25T06:24:24.822Z,9.77
2022-11-25T06:26:51.196Z,9.75
2022-11-25T06:29:17.559Z,9.74
2022-11-25T06:31:44.034Z,9.73
2022-11-25T06:34:10.599Z,9.67
2022-11-25T06:36:37.128Z,9.64
2022-11-25T06:39:03.704Z,9.55
2022-11-25T06:41:30.111Z,9.55
2022-11-25T06:43:56.600Z,9.58
2022-11-25T06:46:25.394Z,9.53
2022-11-25T06:48:53.412Z,9.57
2022-11-25T06:51:20.609Z,9.53
2022-11-25T06:53:47.697Z,9.54
2022-11-25T06:56:17.004Z,9.50
2022-11-25T06:58:45.012Z,9.49
2022-11-25T07:01:19.756Z,9.51
2022-11-25T07:03:52.199Z,9.47
2022-11-25T07:06:20.139Z,9.46
2022-11-25T07:08:47.748Z,9.43
2022-11-25T07:11:20.623Z,9.44
2022-11-25T07:13:48.095Z,9.44
2022-11-25T07:16:14.905Z,9.47
2022-11-25T07:18:42.241Z,9.38
2022-11-25T07:21:11.614Z,9.36
2022-11-25T07:23:38.999Z,9.40
2022-11-25T07:26:07.763Z,9.36
2022-11-25T07:28:34.982Z,9.36
2022-11-25T07:31:23.699Z,9.43
2022-11-25T07:34:11.633Z,9.43
2022-11-25T07:36:38.094Z,9.35
2022-11-25T07:39:07.820Z,9.43
2022-11-25T07:41:34.759Z,9.42
2022-11-25T07:44:04.249Z,9.43
2022-11-25T07:46:33.798Z,9.49
2022-11-25T07:49:06.956Z,9.47
2022-11-25T07:51:34.769Z,9.43
2022-11-25T07:54:03.407Z,9.51
2022-11-25T07:56:30.154Z,9.45
2022-11-25T07:58:57.266Z,9.45
2022-11-25T08:01:24.479Z,9.57
2022-11-25T08:03:52.184Z,9.65
2022-11-25T08:06:21.838Z,9.75
2022-11-25T08:08:49.315Z,9.81
2022-11-25T08:11:22.133Z,9.87
2022-11-25T08:13:49.155Z,9.81
2022-11-25T08:16:17.859Z,9.86
2022-11-25T08:18:44.709Z,9.88
2022-11-25T08:21:12.799Z,9.93
2022-11-25T08:23:41.246Z,9.96
2022-11-25T08:26:08.956Z,10.03
2022-11-25T08:28:36.477Z,10.04
2022-11-25T08:31:05.386Z,10.06
2022-11-25T08:33:32.002Z,10.15
2022-11-25T08:35:58.533Z,10.17
2022-11-25T08:38:25.025Z,10.24
2022-11-25T08:40:51.631Z,10.22
2022-11-25T08:43:18.400Z,9.99
2022-11-25T08:45:44.989Z,10.07
2022-11-25T08:48:11.402Z,10.12
2022-11-25T08:50:38.592Z,10.27
2022-11-25T08:53:05.136Z,10.22
2022-11-25T08:55:32.814Z,10.21
2022-11-25T08:57:59.200Z,10.32
2022-11-25T09:00:25.740Z,10.31
2022-11-25T09:02:52.231Z,10.48
2022-11-25T09:05:21.143Z,10.55
2022-11-25T09:07:47.592Z,10.48
2022-11-25T09:10:17.048Z,10.56
2022-11-25T09:12:44.122Z,10.59
2022-11-25T09:15:11.022Z,10.67
2022-11-25T09:17:37.594Z,10.60
2022-11-25T09:20:05.419Z,10.67
2022-11-25T09:22:32.741Z,10.63
2022-11-25T09:24:59.183Z,10.79
2022-11-25T09:27:25.655Z,10.78
2022-11-25T09:29:52.209Z,10.83
2022-11-25T09:32:18.675Z,10.93
2022-11-25T09:34:45.234Z,11.03
2022-11-25T09:37:12.114Z,11.06
2022-11-25T09:39:38.923Z,11.13
2022-11-25T09:42:41.001Z,11.26
2022-11-25T09:45:41.098Z,11.55
2022-11-25T09:48:17.362Z,11.57
2022-11-25T09:50:58.835Z,11.78
2022-11-25T09:53:37.422Z,11.72
2022-11-25T09:56:12.948Z,11.95
2022-11-25T09:58:48.007Z,12.12
2022-11-25T10:01:18.353Z,12.39
2022-11-25T10:03:49.039Z,12.56
2022-11-25T10:06:31.108Z,12.72
2022-11-25T10:09:09.107Z,12.65
2022-11-25T10:12:03.361Z,12.77
2022-11-25T10:14:49.373Z,13.03
2022-11-25T10:17:38.280Z,13.25
2022-11-25T10:20:23.829Z,13.44
2022-11-25T10:23:01.927Z,13.61
2022-11-25T10:25:34.359Z,13.56
2022-11-25T10:28:20.598Z,13.65
2022-11-25T10:31:09.419Z,13.70
2022-11-25T10:33:46.609Z,13.85
2022-11-25T10:36:23.687Z,13.87
2022-11-25T10:38:59.147Z,13.82
2022-11-25T10:41:29.713Z,13.80
2022-11-25T10:43:56.769Z,13.65
2022-11-25T10:47:12.133Z,13.77
2022-11-25T10:49:42.892Z,13.88
2022-11-25T10:52:13.948Z,14.07
2022-11-25T10:54:41.318Z,14.07
2022-11-25T10:57:21.252Z,14.21
2022-11-25T10:59:59.112Z,14.39
2022-11-25T11:02:48.322Z,14.50
2022-11-25T11:05:23.165Z,14.68
2022-11-25T11:08:09.143Z,14.73
2022-11-25T11:10:35.840Z,14.82
2022-11-25T11:13:03.698Z,14.91
2022-11-25T11:15:42.352Z,14.98
2022-11-25T11:18:28.356Z,14.93
2022-11-25T11:20:59.392Z,15.03
2022-11-25T11:23:27.378Z,15.13
2022-11-25T11:26:01.949Z,14.86
2022-11-25T11:28:34.936Z,14.97
2022-11-25T11:31:18.033Z,14.97
2022-11-25T11:33:47.584Z,15.08
2022-11-25T11:36:34.302Z,15.31
2022-11-25T11:39:26.468Z,15.47
2022-11-25T11:42:25.225Z,15.65
2022-11-25T11:45:00.717Z,15.56
2022-11-25T11:47:48.995Z,15.32
2022-11-25T11:50:40.059Z,15.31
2022-11-25T11:53:20.825Z,15.37
2022-11-25T11:56:33.764Z,15.58
2022-11-25T11:58:53.228Z,15.74
2022-11-25T12:01:33.763Z,15.84
2022-11-25T12:04:12.531Z,15.93
2022-11-25T12:06:42.599Z,16.05
2022-11-25T12:09:22.876Z,16.04
2022-11-25T12:11:55.234Z,15.60
2022-11-25T12:14:42.934Z,15.57
2022-11-25T12:17:18.473Z,15.46
2022-11-25T12:19:47.523Z,15.50
2022-11-25T12:22:35.161Z,15.67
2022-11-25T12:25:10.505Z,15.90
2022-11-25T12:27:48.316Z,15.91
2022-11-25T12:30:18.966Z,16.01
2022-11-25T12:33:12.547Z,15.96
2022-11-25T12:36:05.783Z,15.73
2022-11-25T12:38:41.767Z,15.58
2022-11-25T12:41:43.804Z,15.70
2022-11-25T12:44:29.065Z,15.91
2022-11-25T12:46:57.387Z,15.85
2022-11-25T12:49:32.050Z,15.63
2022-11-25T12:52:23.590Z,15.49
2022-11-25T12:55:21.067Z,15.53
2022-11-25T12:58:10.126Z,15.60
2022-11-25T13:01:21.392Z,15.59
2022-11-25T13:04:10.052Z,15.75
2022-11-25T13:07:14.874Z,15.85
2022-11-25T13:10:02.623Z,15.84
2022-11-25T13:12:43.848Z,15.77
2022-11-25T13:15:31.472Z,15.62
2022-11-25T13:18:03.617Z,15.66
2022-11-25T13:20:30.082Z,15.72
2022-11-25T13:23:22.427Z,15.72
2022-11-25T13:25:51.456Z,15.83
2022-11-25T13:28:35.719Z,15.88
2022-11-25T13:31:14.443Z,15.93
2022-11-25T13:33:44.356Z,16.05
2022-11-25T13:36:22.680Z,16.21
2022-11-25T13:38:49.112Z,16.21
2022-11-25T13:41:16.013Z,16.13
2022-11-25T13:44:02.150Z,16.03
2022-11-25T13:46:38.627Z,16.07
2022-11-25T13:49:34.236Z,16.03
2022-11-25T13:52:06.065Z,16.16
2022-11-25T13:54:44.237Z,16.21
2022-11-25T13:57:13.590Z,16.11
2022-11-25T13:59:43.152Z,16.06
2022-11-25T14:02:29.917Z,16.10
2022-11-25T14:05:18.094Z,16.05
2022-11-25T14:07:50.900Z,16.09
2022-11-25T14:10:45.615Z,16.05
2022-11-25T14:13:48.014Z,16.04
2022-11-25T14:16:17.546Z,16.01
2022-11-25T14:19:17.300Z,16.01
2022-11-25T14:21:39.326Z,15.75
2022-11-25T14:24:22.170Z,15.51
2022-11-25T14:26:52.266Z,15.21
2022-11-25T14:29:23.840Z,15.19
2022-11-25T14:31:58.352Z,15.16
2022-11-25T14:34:33.507Z,15.09
2022-11-25T14:37:20.138Z,15.10
2022-11-25T14:40:00.545Z,15.15
2022-11-25T14:42:35.017Z,15.12
2022-11-25T14:45:03.128Z,15.07
2022-11-25T14:47:39.105Z,15.05
2022-11-25T14:53:01.031Z,14.82
2022-11-25T14:55:30.783Z,14.78
2022-11-25T14:58:00.476Z,14.73
2022-11-25T15:00:27.508Z,14.71
2022-11-25T15:02:58.255Z,14.69
2022-11-25T15:05:36.292Z,14.67
2022-11-25T15:08:20.192Z,14.59
2022-11-25T15:10:59.002Z,14.50
2022-11-25T15:13:39.964Z,14.39
2022-11-25T15:16:12.487Z,14.34
2022-11-25T15:19:09.400Z,14.29
2022-11-25T15:22:06.967Z,14.17
2022-11-25T15:24:40.358Z,14.13
2022-11-25T15:27:22.155Z,14.05
2022-11-25T15:29:49.572Z,14.02
2022-11-25T15:32:19.312Z,14.00
2022-11-25T15:34:47.289Z,13.88
2022-11-25T15:37:13.966Z,13.82
2022-11-25T15:39:40.630Z,13.79
2022-11-25T15:42:16.561Z,13.71
2022-11-25T15:44:48.891Z,13.64
2022-11-25T15:47:25.601Z,13.62
2022-11-25T15:50:01.132Z,13.58
2022-11-25T15:52:31.693Z,13.53
2022-11-25T15:55:07.655Z,13.45
2022-11-25T15:57:38.717Z,13.38
2022-11-25T16:00:20.856Z,13.30
2022-11-25T16:02:47.381Z,13.20
2022-11-25T16:05:16.930Z,13.16
2022-11-25T16:07:49.859Z,13.12
2022-11-25T16:10:30.797Z,13.07
2022-11-25T16:13:21.121Z,13.00
2022-11-25T16:15:51.249Z,12.93
2022-11-25T16:18:39.382Z,12.89
2022-11-25T16:21:10.935Z,12.85
2022-11-25T16:23:40.251Z,12.81
2022-11-25T16:26:12.736Z,12.74
2022-11-25T16:28:42.569Z,12.67
2022-11-25T16:31:19.055Z,12.61
2022-11-25T16:33:45.751Z,12.54
2022-11-25T16:36:12.212Z,12.49
2022-11-25T16:38:41.573Z,12.39
2022-11-25T16:41:18.482Z,12.32
2022-11-25T16:43:44.937Z,12.28
2022-11-25T16:46:15.738Z,12.26
2022-11-25T16:48:42.402Z,12.23
2022-11-25T16:51:15.420Z,12.13
2022-11-25T16:53:43.466Z,12.09
2022-11-25T16:56:14.543Z,12.02
2022-11-25T16:58:43.245Z,11.89
2022-11-25T17:01:19.409Z,11.90
2022-11-25T17:03:45.930Z,11.80
2022-11-25T17:06:22.313Z,11.73
2022-11-25T17:08:50.080Z,11.68
2022-11-25T17:11:19.405Z,11.60
2022-11-25T17:13:50.772Z,11.55
2022-11-25T17:16:19.989Z,11.49
2022-11-25T17:18:47.110Z,11.45
2022-11-25T17:21:15.480Z,11.42
2022-11-25T17:23:43.062Z,11.38
2022-11-25T17:26:25.960Z,11.31
2022-11-25T17:28:58.878Z,11.28
2022-11-25T17:31:28.111Z,11.25
2022-11-25T17:33:54.699Z,11.22
2022-11-25T17:36:22.008Z,11.19
2022-11-25T17:38:49.040Z,11.17
2022-11-25T17:41:17.761Z,11.13
2022-11-25T17:43:46.507Z,11.09
2022-11-25T17:46:14.899Z,11.03
2022-11-25T17:48:44.682Z,11.01
2022-11-25T17:51:12.587Z,10.96
2022-11-25T17:53:40.332Z,10.91
2022-11-25T17:56:25.741Z,10.90
2022-11-25T17:58:52.679Z,11.01
2022-11-25T18:01:19.488Z,11.00
2022-11-25T18:03:46.059Z,10.95
2022-11-25T18:06:12.480Z,10.88
2022-11-25T18:08:39.079Z,10.84
2022-11-25T18:11:07.556Z,10.78
2022-11-25T18:13:37.009Z,10.79
2022-11-25T18:16:03.696Z,10.71
2022-11-25T18:18:30.118Z,10.68
2022-11-25T18:20:56.544Z,10.64
2022-11-25T18:23:23.321Z,10.62
2022-11-25T18:25:50.239Z,10.58
2022-11-25T18:28:23.522Z,10.53
2022-11-25T18:30:50.761Z,10.50
2022-11-25T18:33:18.884Z,10.45
2022-11-25T18:35:46.347Z,10.42
2022-11-25T18:38:13.429Z,10.38
2022-11-25T18:40:42.509Z,10.34
2022-11-25T18:46:06.175Z,10.27
2022-11-25T18:48:34.325Z,10.25
2022-11-25T18:51:00.779Z,10.21
2022-11-25T18:53:27.362Z,10.19
2022-11-25T18:55:54.195Z,10.16
2022-11-25T18:58:27.016Z,10.13
2022-11-25T19:00:56.895Z,10.12
2022-11-25T19:03:25.785Z,10.08
2022-11-25T19:05:58.529Z,10.07
2022-11-25T19:08:24.991Z,10.04
2022-11-25T19:10:51.528Z,10.04
2022-11-25T19:13:24.499Z,9.99
2022-11-25T19:15:51.387Z,10.01
2022-11-25T19:18:24.406Z,9.96
2022-11-25T19:20:51.124Z,9.95
2022-11-25T19:23:25.370Z,9.94
2022-11-25T19:25:59.707Z,9.92
2022-11-25T19:28:26.862Z,9.91
2022-11-25T19:30:58.900Z,9.89
2022-11-25T19:33:38.235Z,9.85
2022-11-25T19:36:06.584Z,9.81
2022-11-25T19:38:34.676Z,9.78
2022-11-25T19:41:01.206Z,9.75
2022-11-25T19:43:27.974Z,9.74
2022-11-25T19:45:56.437Z,9.72
2022-11-25T19:48:26.916Z,9.71
2022-11-25T19:50:59.447Z,9.65
2022-11-25T19:53:31.790Z,9.61
2022-11-25T19:56:03.785Z,9.62
2022-11-25T19:58:30.511Z,9.62
2022-11-25T20:01:00.751Z,9.59
2022-11-25T20:03:30.028Z,9.61
2022-11-25T20:05:56.870Z,9.61
2022-11-25T20:08:26.047Z,9.60
2022-11-25T20:10:53.156Z,9.61
2022-11-25T20:13:20.226Z,9.58
2022-11-25T20:15:47.116Z,9.58
2022-11-25T20:18:18.420Z,9.54
2022-11-25T20:20:46.878Z,9.54
2022-11-25T20:23:22.509Z,9.56
2022-11-25T20:25:49.848Z,9.52
2022-11-25T20:28:21.193Z,9.49
2022-11-25T20:30:48.413Z,9.46
2022-11-25T20:33:17.711Z,9.43
2022-11-25T20:35:51.255Z,9.39
2022-11-25T20:38:23.635Z,9.36
2022-11-25T20:40:55.956Z,9.35
2022-11-25T20:43:34.377Z,9.34
2022-11-25T20:46:02.557Z,9.32
2022-11-25T20:48:29.805Z,9.30
2022-11-25T20:51:00.371Z,9.30
2022-11-25T20:53:30.260Z,9.27
2022-11-25T20:55:56.704Z,9.25
2022-11-25T20:58:29.052Z,9.21
2022-11-25T21:00:57.721Z,9.20
2022-11-25T21:03:25.755Z,9.17
2022-11-25T21:05:53.706Z,9.19
2022-11-25T21:08:25.783Z,9.14
2022-11-25T21:10:56.103Z,9.15
2022-11-25T21:13:28.075Z,9.10
2022-11-25T21:15:56.760Z,9.07
2022-11-25T21:18:24.543Z,9.04
2022-11-25T21:20:53.934Z,9.06
2022-11-25T21:23:24.518Z,9.05
2022-11-25T21:25:51.442Z,9.01
2022-11-25T21:28:20.919Z,9.01
2022-11-25T21:30:48.352Z,9.00
2022-11-25T21:33:15.618Z,9.00
2022-11-25T21:35:46.810Z,8.99
2022-11-25T21:38:18.413Z,8.98
2022-11-25T21:40:52.293Z,8.96
2022-11-25T21:43:33.735Z,8.91
2022-11-25T21:46:07.133Z,8.91
2022-11-25T21:48:33.789Z,8.89
2022-11-25T21:51:00.494Z,8.88
2022-11-25T21:53:27.212Z,8.85
2022-11-25T21:55:54.359Z,8.84
2022-11-25T21:58:25.621Z,8.81
2022-11-25T22:00:55.353Z,8.78
2022-11-25T22:03:23.539Z,8.78
2022-11-25T22:05:50.768Z,8.73
2022-11-25T22:08:17.951Z,8.68
2022-11-25T22:10:48.760Z,8.69
2022-11-25T22:13:32.378Z,8.65
2022-11-25T22:15:59.210Z,8.64
2022-11-25T22:18:32.567Z,8.63
2022-11-25T22:20:59.435Z,8.61
2022-11-25T22:23:26.626Z,8.58
2022-11-25T22:25:54.004Z,8.59
2022-11-25T22:28:24.177Z,8.58
2022-11-25T22:30:53.051Z,8.57
2022-11-25T22:33:22.339Z,8.57
2022-11-25T22:35:50.188Z,8.54
2022-11-25T22:38:18.546Z,8.53
2022-11-25T22:40:47.861Z,8.51
2022-11-25T22:43:20.650Z,8.54
2022-11-25T22:45:47.493Z,8.55
2022-11-25T22:48:18.285Z,8.55
2022-11-25T22:50:45.992Z,8.52
2022-11-25T22:53:14.867Z,8.48
2022-11-25T22:55:41.731Z,8.46
2022-11-25T22:58:09.887Z,8.48
2022-11-25T23:00:44.767Z,8.44
2022-11-25T23:03:23.045Z,8.45
2022-11-25T23:05:51.229Z,8.44
2022-11-25T23:08:21.717Z,8.38
2022-11-25T23:10:49.152Z,8.35
2022-11-25T23:13:18.705Z,8.33
2022-11-25T23:15:49.167Z,8.31
2022-11-25T23:18:22.872Z,8.29
2022-11-25T23:20:50.810Z,8.28
2022-11-25T23:23:22.982Z,8.27
2022-11-25T23:25:49.801Z,8.24
2022-11-25T23:28:16.768Z,8.22
2022-11-25T23:30:57.724Z,8.23
2022-11-25T23:33:33.652Z,8.22
2022-11-25T23:36:04.763Z,8.22
2022-11-25T23:38:44.478Z,8.21
2022-11-25T23:41:21.088Z,8.17
2022-11-25T23:43:50.957Z,8.15
2022-11-25T23:46:22.182Z,8.15
2022-11-25T23:48:54.959Z,8.13
2022-11-25T23:51:27.295Z,8.09
2022-11-25T23:53:58.537Z,8.09
2022-11-25T23:56:27.163Z,8.07
2022-11-25T23:58:54.390Z,8.03
